Terminal Aerodrome Forecast
Issued by NWS

Home | Current Version | Previous Version | Text Only | Print | Product List | Glossary On
Versions: 1 2 3 4 5 6 7 8 9 10 11 12 13 14 15 16 17 18 19 20 21 22 23 24 25 26 27 28 29
000
FTUS43 KGRB 191100
TAFRHI
TAF
KRHI 191129Z 1912/2012 13007KT P6SM BKN060 OVC120 WS012/15040KT
     FM191400 14011G16KT P6SM BKN070 OVC120
     FM200000 08006KT P6SM BKN030 OVC045
     FM200300 05006KT 6SM -RA SCT012 OVC020
     FM200500 35006KT 4SM -RA BKN008 OVC012=

USA.gov is the U.S. government's official web portal to all federal, state and local government web resources and services.